METAR Data
IDs: Format: Raw Decoded Include TAF

Data at: 1459 UTC 25 Jan 2020

METAR for:KDVN (Davenport Muni, IA, US)
Text:KDVN 251452Z AUTO 27016KT 4SM BR OVC009 M01/M02 A2994 RMK AO2 SLP141 60000 T10061022 51014
Temperature: -0.6°C ( 31°F)
Dewpoint: -2.2°C ( 28°F) [RH = 89%]
Pressure (altimeter):29.94 inches Hg (1014.0 mb) [Sea level pressure: 1014.1 mb]
Winds:from the W (270 degrees) at 18 MPH (16 knots; 8.2 m/s)
Visibility: 4 sm ( 6 km)
Ceiling:900 feet AGL
Clouds: overcast cloud deck at 900 feet AGL
Weather:BR (mist)
QC Flag:automated observation with no human augmentation